sensor_id;sensor_type;location;lat;lon;timestamp;P1;P2;P0
72467;PMS3003;60626;43.582;1.470;2022-08-16T00:01:12;22.00;19.25;14.50
72467;PMS3003;60626;43.582;1.470;2022-08-16T00:03:39;18.25;18.25;14.25
72467;PMS3003;60626;43.582;1.470;2022-08-16T00:06:07;18.50;18.50;13.25
72467;PMS3003;60626;43.582;1.470;2022-08-16T00:08:35;19.75;17.75;13.25
72467;PMS3003;60626;43.582;1.470;2022-08-16T00:11:04;16.75;16.75;13.00
72467;PMS3003;60626;43.582;1.470;2022-08-16T00:13:32;16.25;16.25;13.00
72467;PMS3003;60626;43.582;1.470;2022-08-16T00:16:07;18.00;16.50;14.00
72467;PMS3003;60626;43.582;1.470;2022-08-16T00:18:55;15.50;15.50;12.75
72467;PMS3003;60626;43.582;1.470;2022-08-16T00:21:23;17.00;17.00;11.75
72467;PMS3003;60626;43.582;1.470;2022-08-16T00:23:50;17.00;16.00;13.00
72467;PMS3003;60626;43.582;1.470;2022-08-16T00:26:16;15.25;15.25;12.00
72467;PMS3003;60626;43.582;1.470;2022-08-16T00:29:02;18.00;17.50;13.00
72467;PMS3003;60626;43.582;1.470;2022-08-16T00:31:33;15.00;14.00;11.75
72467;PMS3003;60626;43.582;1.470;2022-08-16T00:34:20;18.25;15.00;11.75
72467;PMS3003;60626;43.582;1.470;2022-08-16T00:37:08;15.50;15.50;12.00
72467;PMS3003;60626;43.582;1.470;2022-08-16T00:39:35;14.25;14.00;12.00
72467;PMS3003;60626;43.582;1.470;2022-08-16T00:42:04;17.25;15.75;13.00
72467;PMS3003;60626;43.582;1.470;2022-08-16T00:44:35;16.00;14.00;11.00
72467;PMS3003;60626;43.582;1.470;2022-08-16T00:47:06;18.00;16.75;11.00
72467;PMS3003;60626;43.582;1.470;2022-08-16T00:49:42;18.50;17.25;11.75
72467;PMS3003;60626;43.582;1.470;2022-08-16T00:52:21;15.00;13.75;11.75
72467;PMS3003;60626;43.582;1.470;2022-08-16T00:54:56;14.75;14.75;11.75
72467;PMS3003;60626;43.582;1.470;2022-08-16T00:57:24;15.50;15.50;12.50
72467;PMS3003;60626;43.582;1.470;2022-08-16T01:00:12;18.50;16.50;13.25
72467;PMS3003;60626;43.582;1.470;2022-08-16T01:02:48;18.25;15.25;12.75
72467;PMS3003;60626;43.582;1.470;2022-08-16T01:05:16;15.25;15.25;13.25
72467;PMS3003;60626;43.582;1.470;2022-08-16T01:07:43;16.75;16.75;13.00
72467;PMS3003;60626;43.582;1.470;2022-08-16T01:10:19;15.00;14.50;11.50
72467;PMS3003;60626;43.582;1.470;2022-08-16T01:12:59;18.25;16.75;13.25
72467;PMS3003;60626;43.582;1.470;2022-08-16T01:15:41;15.50;15.50;13.50
72467;PMS3003;60626;43.582;1.470;2022-08-16T01:18:18;16.75;16.25;12.25
72467;PMS3003;60626;43.582;1.470;2022-08-16T01:24:32;16.50;16.00;11.75
72467;PMS3003;60626;43.582;1.470;2022-08-16T01:27:21;16.50;13.25;11.00
72467;PMS3003;60626;43.582;1.470;2022-08-16T01:30:05;17.25;15.75;12.00
72467;PMS3003;60626;43.582;1.470;2022-08-16T01:32:46;18.00;14.25;10.75
72467;PMS3003;60626;43.582;1.470;2022-08-16T01:35:35;15.50;15.50;11.25
72467;PMS3003;60626;43.582;1.470;2022-08-16T01:38:29;14.75;14.00;11.00
72467;PMS3003;60626;43.582;1.470;2022-08-16T01:41:04;15.25;15.25;12.00
72467;PMS3003;60626;43.582;1.470;2022-08-16T01:43:36;14.75;12.75;10.25
72467;PMS3003;60626;43.582;1.470;2022-08-16T01:46:06;17.00;14.50;12.00
72467;PMS3003;60626;43.582;1.470;2022-08-16T01:49:08;14.25;14.25;11.25
72467;PMS3003;60626;43.582;1.470;2022-08-16T01:52:11;16.50;15.25;11.00
72467;PMS3003;60626;43.582;1.470;2022-08-16T01:54:55;14.75;14.75;12.00
72467;PMS3003;60626;43.582;1.470;2022-08-16T01:57:22;16.50;16.00;11.50
72467;PMS3003;60626;43.582;1.470;2022-08-16T01:59:50;14.75;14.75;12.75
72467;PMS3003;60626;43.582;1.470;2022-08-16T02:02:20;17.00;15.50;13.50
72467;PMS3003;60626;43.582;1.470;2022-08-16T02:04:54;14.50;13.00;11.00
72467;PMS3003;60626;43.582;1.470;2022-08-16T02:07:22;15.25;15.25;12.00
72467;PMS3003;60626;43.582;1.470;2022-08-16T02:09:50;16.75;15.00;12.25
72467;PMS3003;60626;43.582;1.470;2022-08-16T02:12:29;14.75;14.75;11.25
72467;PMS3003;60626;43.582;1.470;2022-08-16T02:15:19;13.25;13.25;11.00
72467;PMS3003;60626;43.582;1.470;2022-08-16T02:17:51;17.75;16.25;11.25
72467;PMS3003;60626;43.582;1.470;2022-08-16T02:20:19;14.75;11.50;8.25
72467;PMS3003;60626;43.582;1.470;2022-08-16T02:22:51;16.25;16.25;12.25
72467;PMS3003;60626;43.582;1.470;2022-08-16T02:25:20;15.00;15.00;12.00
72467;PMS3003;60626;43.582;1.470;2022-08-16T02:27:48;15.50;14.00;10.50
72467;PMS3003;60626;43.582;1.470;2022-08-16T02:30:18;19.00;16.00;11.75
72467;PMS3003;60626;43.582;1.470;2022-08-16T02:33:08;19.75;17.25;12.25
72467;PMS3003;60626;43.582;1.470;2022-08-16T02:35:36;16.50;15.50;12.00
72467;PMS3003;60626;43.582;1.470;2022-08-16T02:38:19;10.25;10.25;9.50
72467;PMS3003;60626;43.582;1.470;2022-08-16T02:40:46;15.75;15.75;11.75
72467;PMS3003;60626;43.582;1.470;2022-08-16T02:43:14;17.00;15.25;12.00
72467;PMS3003;60626;43.582;1.470;2022-08-16T02:45:41;18.00;16.75;12.25
72467;PMS3003;60626;43.582;1.470;2022-08-16T02:48:08;16.75;15.75;12.25
72467;PMS3003;60626;43.582;1.470;2022-08-16T02:50:56;14.75;13.25;11.00
72467;PMS3003;60626;43.582;1.470;2022-08-16T02:53:36;17.50;17.50;12.50
72467;PMS3003;60626;43.582;1.470;2022-08-16T02:56:13;16.25;15.00;12.00
72467;PMS3003;60626;43.582;1.470;2022-08-16T02:58:45;16.50;16.00;12.50
72467;PMS3003;60626;43.582;1.470;2022-08-16T03:01:15;18.25;12.50;11.50
72467;PMS3003;60626;43.582;1.470;2022-08-16T03:03:59;15.00;14.25;11.75
72467;PMS3003;60626;43.582;1.470;2022-08-16T03:06:47;17.25;17.25;13.00
72467;PMS3003;60626;43.582;1.470;2022-08-16T03:09:21;16.50;16.50;12.50
72467;PMS3003;60626;43.582;1.470;2022-08-16T03:11:47;16.25;16.25;13.50
72467;PMS3003;60626;43.582;1.470;2022-08-16T03:14:15;16.75;16.75;13.75
72467;PMS3003;60626;43.582;1.470;2022-08-16T03:16:46;15.25;15.25;11.75
72467;PMS3003;60626;43.582;1.470;2022-08-16T03:19:26;15.25;15.25;12.25
72467;PMS3003;60626;43.582;1.470;2022-08-16T03:22:15;20.50;16.00;12.50
72467;PMS3003;60626;43.582;1.470;2022-08-16T03:24:53;17.00;17.00;12.75
72467;PMS3003;60626;43.582;1.470;2022-08-16T03:27:23;20.00;17.75;13.00
72467;PMS3003;60626;43.582;1.470;2022-08-16T03:29:57;20.25;17.50;13.50
72467;PMS3003;60626;43.582;1.470;2022-08-16T03:32:42;16.50;14.75;11.00
72467;PMS3003;60626;43.582;1.470;2022-08-16T03:35:12;18.25;15.75;13.25
72467;PMS3003;60626;43.582;1.470;2022-08-16T03:37:43;16.50;16.50;13.25
72467;PMS3003;60626;43.582;1.470;2022-08-16T03:40:29;15.50;14.50;11.75
72467;PMS3003;60626;43.582;1.470;2022-08-16T03:43:01;17.75;17.75;13.25
72467;PMS3003;60626;43.582;1.470;2022-08-16T03:45:46;18.50;15.50;12.50
72467;PMS3003;60626;43.582;1.470;2022-08-16T03:48:14;13.75;13.25;11.00
72467;PMS3003;60626;43.582;1.470;2022-08-16T03:50:45;16.50;14.50;10.25
72467;PMS3003;60626;43.582;1.470;2022-08-16T03:53:25;15.00;15.00;11.75
72467;PMS3003;60626;43.582;1.470;2022-08-16T03:56:03;16.75;16.25;12.75
72467;PMS3003;60626;43.582;1.470;2022-08-16T03:58:43;19.50;16.75;12.50
72467;PMS3003;60626;43.582;1.470;2022-08-16T04:01:13;14.75;14.75;12.50
72467;PMS3003;60626;43.582;1.470;2022-08-16T04:03:41;17.25;15.50;11.25
72467;PMS3003;60626;43.582;1.470;2022-08-16T04:06:09;17.25;17.00;14.25
72467;PMS3003;60626;43.582;1.470;2022-08-16T04:08:36;16.50;14.75;11.25
72467;PMS3003;60626;43.582;1.470;2022-08-16T04:11:04;17.50;15.00;11.25
72467;PMS3003;60626;43.582;1.470;2022-08-16T04:13:32;15.00;13.75;11.00
72467;PMS3003;60626;43.582;1.470;2022-08-16T04:16:20;18.50;18.50;14.00
72467;PMS3003;60626;43.582;1.470;2022-08-16T04:18:54;15.25;15.25;12.50
72467;PMS3003;60626;43.582;1.470;2022-08-16T04:21:32;15.50;15.50;12.00
72467;PMS3003;60626;43.582;1.470;2022-08-16T04:24:00;16.00;14.25;12.00
72467;PMS3003;60626;43.582;1.470;2022-08-16T04:26:28;19.75;16.50;13.75
72467;PMS3003;60626;43.582;1.470;2022-08-16T04:28:58;14.50;14.50;11.75
72467;PMS3003;60626;43.582;1.470;2022-08-16T04:31:46;18.50;15.25;11.25
72467;PMS3003;60626;43.582;1.470;2022-08-16T04:34:24;17.75;16.00;12.25
72467;PMS3003;60626;43.582;1.470;2022-08-16T04:36:53;15.75;14.50;11.00
72467;PMS3003;60626;43.582;1.470;2022-08-16T04:39:22;18.25;18.25;12.75
72467;PMS3003;60626;43.582;1.470;2022-08-16T04:41:49;15.50;14.25;10.50
72467;PMS3003;60626;43.582;1.470;2022-08-16T04:44:22;16.00;14.25;10.75
72467;PMS3003;60626;43.582;1.470;2022-08-16T04:47:09;16.50;16.50;13.25
72467;PMS3003;60626;43.582;1.470;2022-08-16T04:49:49;16.00;15.75;11.00
72467;PMS3003;60626;43.582;1.470;2022-08-16T04:52:17;19.50;16.00;13.25
72467;PMS3003;60626;43.582;1.470;2022-08-16T04:55:11;18.25;17.50;13.75
72467;PMS3003;60626;43.582;1.470;2022-08-16T04:57:41;15.50;15.50;11.75
72467;PMS3003;60626;43.582;1.470;2022-08-16T05:00:09;14.50;14.50;11.00
72467;PMS3003;60626;43.582;1.470;2022-08-16T05:03:08;13.50;13.50;11.50
72467;PMS3003;60626;43.582;1.470;2022-08-16T05:05:37;18.25;15.75;11.25
72467;PMS3003;60626;43.582;1.470;2022-08-16T05:08:22;17.75;17.25;12.00
72467;PMS3003;60626;43.582;1.470;2022-08-16T05:10:56;15.00;15.00;10.75
72467;PMS3003;60626;43.582;1.470;2022-08-16T05:13:26;16.25;16.25;14.00
72467;PMS3003;60626;43.582;1.470;2022-08-16T05:16:15;13.75;13.75;11.50
72467;PMS3003;60626;43.582;1.470;2022-08-16T05:18:55;16.75;15.25;10.25
72467;PMS3003;60626;43.582;1.470;2022-08-16T05:21:24;14.75;14.75;11.50
72467;PMS3003;60626;43.582;1.470;2022-08-16T05:24:04;14.00;14.00;11.25
72467;PMS3003;60626;43.582;1.470;2022-08-16T05:26:32;19.75;18.00;13.25
72467;PMS3003;60626;43.582;1.470;2022-08-16T05:29:08;20.00;16.50;13.50
72467;PMS3003;60626;43.582;1.470;2022-08-16T05:31:40;15.25;15.25;11.75
72467;PMS3003;60626;43.582;1.470;2022-08-16T05:34:18;15.50;14.25;10.25
72467;PMS3003;60626;43.582;1.470;2022-08-16T05:36:47;17.75;17.75;12.50
72467;PMS3003;60626;43.582;1.470;2022-08-16T05:39:16;16.75;16.25;13.50
72467;PMS3003;60626;43.582;1.470;2022-08-16T05:41:45;16.75;15.75;12.25
72467;PMS3003;60626;43.582;1.470;2022-08-16T05:44:14;16.50;16.50;12.75
72467;PMS3003;60626;43.582;1.470;2022-08-16T05:46:53;18.00;18.00;14.50
72467;PMS3003;60626;43.582;1.470;2022-08-16T05:49:22;17.00;17.00;14.00
72467;PMS3003;60626;43.582;1.470;2022-08-16T05:52:03;17.50;16.50;12.25
72467;PMS3003;60626;43.582;1.470;2022-08-16T05:54:37;19.00;17.25;13.00
72467;PMS3003;60626;43.582;1.470;2022-08-16T05:57:12;16.25;16.25;13.50
72467;PMS3003;60626;43.582;1.470;2022-08-16T05:59:40;16.00;16.00;12.75
72467;PMS3003;60626;43.582;1.470;2022-08-16T06:02:06;17.75;16.25;13.25
72467;PMS3003;60626;43.582;1.470;2022-08-16T06:04:33;17.25;17.25;13.25
72467;PMS3003;60626;43.582;1.470;2022-08-16T06:07:03;19.00;16.25;13.50
72467;PMS3003;60626;43.582;1.470;2022-08-16T06:09:50;15.00;15.00;11.00
72467;PMS3003;60626;43.582;1.470;2022-08-16T06:12:17;13.75;13.75;10.75
72467;PMS3003;60626;43.582;1.470;2022-08-16T06:14:58;18.25;15.75;12.00
72467;PMS3003;60626;43.582;1.470;2022-08-16T06:17:33;18.25;16.75;11.25
72467;PMS3003;60626;43.582;1.470;2022-08-16T06:20:10;16.75;15.25;12.00
72467;PMS3003;60626;43.582;1.470;2022-08-16T06:22:43;16.25;14.75;11.00
72467;PMS3003;60626;43.582;1.470;2022-08-16T06:25:24;17.25;17.25;12.25
72467;PMS3003;60626;43.582;1.470;2022-08-16T06:28:04;18.25;17.00;13.50
72467;PMS3003;60626;43.582;1.470;2022-08-16T06:30:34;15.50;14.25;11.00
72467;PMS3003;60626;43.582;1.470;2022-08-16T06:33:08;14.25;14.25;10.50
72467;PMS3003;60626;43.582;1.470;2022-08-16T06:35:37;18.50;15.00;10.25
72467;PMS3003;60626;43.582;1.470;2022-08-16T06:38:06;15.50;15.50;12.50
72467;PMS3003;60626;43.582;1.470;2022-08-16T06:40:53;19.25;14.50;12.25
72467;PMS3003;60626;43.582;1.470;2022-08-16T06:43:20;17.50;16.25;12.75
72467;PMS3003;60626;43.582;1.470;2022-08-16T06:45:53;17.25;15.50;12.75
72467;PMS3003;60626;43.582;1.470;2022-08-16T06:48:20;19.50;17.25;12.25
72467;PMS3003;60626;43.582;1.470;2022-08-16T06:51:00;17.25;16.00;11.25
72467;PMS3003;60626;43.582;1.470;2022-08-16T06:53:31;17.00;16.25;10.50
72467;PMS3003;60626;43.582;1.470;2022-08-16T06:56:01;17.25;17.25;13.75
72467;PMS3003;60626;43.582;1.470;2022-08-16T06:58:49;16.00;16.00;11.75
72467;PMS3003;60626;43.582;1.470;2022-08-16T07:01:16;16.00;16.00;12.00
72467;PMS3003;60626;43.582;1.470;2022-08-16T07:03:50;17.75;16.25;12.50
72467;PMS3003;60626;43.582;1.470;2022-08-16T07:06:22;19.75;17.00;12.00
72467;PMS3003;60626;43.582;1.470;2022-08-16T07:08:52;17.75;15.50;12.50
72467;PMS3003;60626;43.582;1.470;2022-08-16T07:11:20;16.50;15.00;11.25
72467;PMS3003;60626;43.582;1.470;2022-08-16T07:14:07;15.25;14.50;10.50
72467;PMS3003;60626;43.582;1.470;2022-08-16T07:16:52;18.50;17.75;12.50
72467;PMS3003;60626;43.582;1.470;2022-08-16T07:19:23;14.25;12.25;10.00
72467;PMS3003;60626;43.582;1.470;2022-08-16T07:22:11;11.25;11.25;11.00
72467;PMS3003;60626;43.582;1.470;2022-08-16T07:24:58;14.00;14.00;11.00
72467;PMS3003;60626;43.582;1.470;2022-08-16T07:27:26;15.50;15.50;12.00
72467;PMS3003;60626;43.582;1.470;2022-08-16T07:29:57;18.75;17.00;12.25
72467;PMS3003;60626;43.582;1.470;2022-08-16T07:32:24;17.25;14.75;11.00
72467;PMS3003;60626;43.582;1.470;2022-08-16T07:34:56;14.75;13.50;12.00
72467;PMS3003;60626;43.582;1.470;2022-08-16T07:37:23;16.25;14.25;11.00
72467;PMS3003;60626;43.582;1.470;2022-08-16T07:39:50;16.50;15.50;10.75
72467;PMS3003;60626;43.582;1.470;2022-08-16T07:42:19;15.75;14.25;11.00
72467;PMS3003;60626;43.582;1.470;2022-08-16T07:44:59;15.25;14.50;11.75
72467;PMS3003;60626;43.582;1.470;2022-08-16T07:47:26;13.25;12.50;9.50
72467;PMS3003;60626;43.582;1.470;2022-08-16T07:49:57;16.50;16.50;12.00
72467;PMS3003;60626;43.582;1.470;2022-08-16T07:52:30;14.25;14.25;10.25
72467;PMS3003;60626;43.582;1.470;2022-08-16T07:54:58;12.75;12.75;10.50
72467;PMS3003;60626;43.582;1.470;2022-08-16T07:57:25;13.50;13.50;10.75
72467;PMS3003;60626;43.582;1.470;2022-08-16T07:59:52;14.75;14.75;11.00
72467;PMS3003;60626;43.582;1.470;2022-08-16T08:02:22;14.00;14.00;9.25
72467;PMS3003;60626;43.582;1.470;2022-08-16T08:04:52;13.50;13.50;11.25
72467;PMS3003;60626;43.582;1.470;2022-08-16T08:07:20;17.25;15.50;11.25
72467;PMS3003;60626;43.582;1.470;2022-08-16T08:09:52;14.50;13.25;11.25
72467;PMS3003;60626;43.582;1.470;2022-08-16T08:12:19;12.75;9.75;7.75
72467;PMS3003;60626;43.582;1.470;2022-08-16T08:15:01;13.25;10.75;9.50
72467;PMS3003;60626;43.582;1.470;2022-08-16T08:17:29;10.00;10.00;8.75
72467;PMS3003;60626;43.582;1.470;2022-08-16T08:20:09;12.00;12.00;10.00
72467;PMS3003;60626;43.582;1.470;2022-08-16T08:22:54;11.25;11.25;8.50
72467;PMS3003;60626;43.582;1.470;2022-08-16T08:25:27;13.25;12.00;9.00
72467;PMS3003;60626;43.582;1.470;2022-08-16T08:28:15;12.00;12.00;9.00
72467;PMS3003;60626;43.582;1.470;2022-08-16T08:30:45;12.75;12.75;10.25
72467;PMS3003;60626;43.582;1.470;2022-08-16T08:33:26;13.50;12.00;10.00
72467;PMS3003;60626;43.582;1.470;2022-08-16T08:35:59;13.00;10.00;8.25
72467;PMS3003;60626;43.582;1.470;2022-08-16T08:38:30;11.75;11.75;9.25
72467;PMS3003;60626;43.582;1.470;2022-08-16T08:41:11;10.75;10.25;8.00
72467;PMS3003;60626;43.582;1.470;2022-08-16T08:43:44;15.25;13.75;10.50
72467;PMS3003;60626;43.582;1.470;2022-08-16T08:46:15;10.00;9.50;7.75
72467;PMS3003;60626;43.582;1.470;2022-08-16T08:48:47;12.75;11.25;10.00
72467;PMS3003;60626;43.582;1.470;2022-08-16T08:51:27;9.50;9.50;8.25
72467;PMS3003;60626;43.582;1.470;2022-08-16T08:54:02;11.75;11.75;10.00
72467;PMS3003;60626;43.582;1.470;2022-08-16T08:56:35;14.25;14.25;10.50
72467;PMS3003;60626;43.582;1.470;2022-08-16T08:59:11;15.75;15.75;10.25
72467;PMS3003;60626;43.582;1.470;2022-08-16T09:01:45;14.75;14.50;11.25
72467;PMS3003;60626;43.582;1.470;2022-08-16T09:04:24;14.50;12.75;9.50
72467;PMS3003;60626;43.582;1.470;2022-08-16T09:06:53;13.75;13.75;10.00
72467;PMS3003;60626;43.582;1.470;2022-08-16T09:09:23;11.25;11.25;8.75
72467;PMS3003;60626;43.582;1.470;2022-08-16T09:11:49;10.00;8.25;7.00
72467;PMS3003;60626;43.582;1.470;2022-08-16T09:14:32;11.25;11.25;9.25
72467;PMS3003;60626;43.582;1.470;2022-08-16T09:16:59;13.00;11.00;10.00
72467;PMS3003;60626;43.582;1.470;2022-08-16T09:19:46;10.50;10.50;9.25
72467;PMS3003;60626;43.582;1.470;2022-08-16T09:22:19;11.75;11.25;9.25
72467;PMS3003;60626;43.582;1.470;2022-08-16T09:24:47;8.00;7.50;7.25
72467;PMS3003;60626;43.582;1.470;2022-08-16T09:27:19;12.50;11.25;9.25
72467;PMS3003;60626;43.582;1.470;2022-08-16T09:29:50;10.75;10.75;9.00
72467;PMS3003;60626;43.582;1.470;2022-08-16T09:32:26;12.50;12.25;9.50
72467;PMS3003;60626;43.582;1.470;2022-08-16T09:34:56;9.50;9.50;7.75
72467;PMS3003;60626;43.582;1.470;2022-08-16T09:37:25;12.25;12.25;10.25
72467;PMS3003;60626;43.582;1.470;2022-08-16T09:40:02;12.50;10.00;9.00
72467;PMS3003;60626;43.582;1.470;2022-08-16T09:42:51;9.50;9.50;7.50
72467;PMS3003;60626;43.582;1.470;2022-08-16T09:45:24;9.25;9.25;8.00
72467;PMS3003;60626;43.582;1.470;2022-08-16T09:47:53;12.75;11.50;9.50
72467;PMS3003;60626;43.582;1.470;2022-08-16T09:50:24;6.50;6.25;4.25
72467;PMS3003;60626;43.582;1.470;2022-08-16T09:53:06;10.00;10.00;7.00
72467;PMS3003;60626;43.582;1.470;2022-08-16T09:55:43;10.00;10.00;8.25
72467;PMS3003;60626;43.582;1.470;2022-08-16T09:58:16;12.75;11.25;9.50
72467;PMS3003;60626;43.582;1.470;2022-08-16T10:01:04;10.00;10.00;8.25
72467;PMS3003;60626;43.582;1.470;2022-08-16T10:03:33;12.50;10.75;8.75
72467;PMS3003;60626;43.582;1.470;2022-08-16T10:06:00;10.50;10.50;8.00
72467;PMS3003;60626;43.582;1.470;2022-08-16T10:08:27;12.25;12.25;9.50
72467;PMS3003;60626;43.582;1.470;2022-08-16T10:10:54;11.25;9.75;8.50
72467;PMS3003;60626;43.582;1.470;2022-08-16T10:13:49;13.25;12.25;9.00
72467;PMS3003;60626;43.582;1.470;2022-08-16T10:16:15;11.50;11.50;9.75
72467;PMS3003;60626;43.582;1.470;2022-08-16T10:18:47;13.00;13.00;9.00
72467;PMS3003;60626;43.582;1.470;2022-08-16T10:21:31;11.00;11.00;9.50
72467;PMS3003;60626;43.582;1.470;2022-08-16T10:23:59;9.00;8.50;7.25
72467;PMS3003;60626;43.582;1.470;2022-08-16T10:26:26;14.25;11.25;9.25
72467;PMS3003;60626;43.582;1.470;2022-08-16T10:29:14;14.00;12.75;10.50
72467;PMS3003;60626;43.582;1.470;2022-08-16T10:31:46;15.00;12.00;9.50
72467;PMS3003;60626;43.582;1.470;2022-08-16T10:34:19;12.25;12.25;10.75
72467;PMS3003;60626;43.582;1.470;2022-08-16T10:36:57;13.50;13.25;11.00
72467;PMS3003;60626;43.582;1.470;2022-08-16T10:39:25;12.25;12.00;8.75
72467;PMS3003;60626;43.582;1.470;2022-08-16T10:42:07;14.00;12.25;10.25
72467;PMS3003;60626;43.582;1.470;2022-08-16T10:44:35;12.25;12.25;11.00
72467;PMS3003;60626;43.582;1.470;2022-08-16T10:47:02;12.50;12.00;10.75
72467;PMS3003;60626;43.582;1.470;2022-08-16T10:49:33;12.50;12.50;10.25
72467;PMS3003;60626;43.582;1.470;2022-08-16T10:52:02;15.25;13.00;10.00
72467;PMS3003;60626;43.582;1.470;2022-08-16T10:54:44;12.00;10.50;8.75
72467;PMS3003;60626;43.582;1.470;2022-08-16T10:57:31;15.75;13.25;10.75
72467;PMS3003;60626;43.582;1.470;2022-08-16T10:59:59;12.50;12.50;10.25
72467;PMS3003;60626;43.582;1.470;2022-08-16T11:02:29;15.00;12.75;9.50
72467;PMS3003;60626;43.582;1.470;2022-08-16T11:05:16;14.75;13.75;10.75
72467;PMS3003;60626;43.582;1.470;2022-08-16T11:07:45;16.00;13.75;11.50
72467;PMS3003;60626;43.582;1.470;2022-08-16T11:10:25;9.50;9.50;8.00
72467;PMS3003;60626;43.582;1.470;2022-08-16T11:13:16;11.25;11.25;10.00
72467;PMS3003;60626;43.582;1.470;2022-08-16T11:16:05;14.75;13.50;11.00
72467;PMS3003;60626;43.582;1.470;2022-08-16T11:18:54;11.75;11.75;9.50
72467;PMS3003;60626;43.582;1.470;2022-08-16T11:21:38;16.00;14.00;11.00
72467;PMS3003;60626;43.582;1.470;2022-08-16T11:24:25;14.50;14.50;11.50
72467;PMS3003;60626;43.582;1.470;2022-08-16T11:27:07;16.75;14.75;11.75
72467;PMS3003;60626;43.582;1.470;2022-08-16T11:29:47;14.00;14.00;11.25
72467;PMS3003;60626;43.582;1.470;2022-08-16T11:32:17;15.00;13.25;10.75
72467;PMS3003;60626;43.582;1.470;2022-08-16T11:34:55;15.50;13.00;10.25
72467;PMS3003;60626;43.582;1.470;2022-08-16T11:37:36;17.00;13.50;11.50
72467;PMS3003;60626;43.582;1.470;2022-08-16T11:40:25;14.50;14.50;11.50
72467;PMS3003;60626;43.582;1.470;2022-08-16T11:42:58;17.00;14.50;11.00
72467;PMS3003;60626;43.582;1.470;2022-08-16T11:45:29;15.50;15.00;11.50
72467;PMS3003;60626;43.582;1.470;2022-08-16T11:48:00;13.50;13.00;10.75
72467;PMS3003;60626;43.582;1.470;2022-08-16T11:50:28;14.00;14.00;11.25
72467;PMS3003;60626;43.582;1.470;2022-08-16T11:52:59;14.50;14.25;11.25
72467;PMS3003;60626;43.582;1.470;2022-08-16T11:55:29;14.75;13.50;10.75
72467;PMS3003;60626;43.582;1.470;2022-08-16T11:57:56;13.75;13.00;11.00
72467;PMS3003;60626;43.582;1.470;2022-08-16T12:00:23;15.50;14.75;12.25
72467;PMS3003;60626;43.582;1.470;2022-08-16T12:03:10;15.00;15.00;12.50
72467;PMS3003;60626;43.582;1.470;2022-08-16T12:05:38;12.50;12.50;9.50
72467;PMS3003;60626;43.582;1.470;2022-08-16T12:08:07;12.50;12.50;10.50
72467;PMS3003;60626;43.582;1.470;2022-08-16T12:10:35;9.00;9.00;7.25
72467;PMS3003;60626;43.582;1.470;2022-08-16T12:13:04;19.75;16.25;13.75
72467;PMS3003;60626;43.582;1.470;2022-08-16T12:15:35;15.75;14.25;11.75
72467;PMS3003;60626;43.582;1.470;2022-08-16T12:18:03;13.25;13.25;10.00
72467;PMS3003;60626;43.582;1.470;2022-08-16T12:20:34;14.00;12.75;10.25
72467;PMS3003;60626;43.582;1.470;2022-08-16T12:23:03;14.50;13.00;10.75
72467;PMS3003;60626;43.582;1.470;2022-08-16T12:25:31;13.25;13.25;10.75
72467;PMS3003;60626;43.582;1.470;2022-08-16T12:28:00;16.75;14.75;12.00
72467;PMS3003;60626;43.582;1.470;2022-08-16T12:30:29;15.25;13.75;11.50
72467;PMS3003;60626;43.582;1.470;2022-08-16T12:33:04;14.50;12.75;11.00
72467;PMS3003;60626;43.582;1.470;2022-08-16T12:35:34;15.25;12.50;9.50
72467;PMS3003;60626;43.582;1.470;2022-08-16T12:38:02;14.75;13.00;10.25
72467;PMS3003;60626;43.582;1.470;2022-08-16T12:40:50;18.75;15.50;12.75
72467;PMS3003;60626;43.582;1.470;2022-08-16T12:43:22;18.25;15.75;12.00
72467;PMS3003;60626;43.582;1.470;2022-08-16T12:45:52;17.25;15.50;12.75
72467;PMS3003;60626;43.582;1.470;2022-08-16T12:48:22;16.75;16.25;13.25
72467;PMS3003;60626;43.582;1.470;2022-08-16T12:51:10;16.00;14.75;12.00
72467;PMS3003;60626;43.582;1.470;2022-08-16T12:53:50;20.50;18.75;14.00
72467;PMS3003;60626;43.582;1.470;2022-08-16T12:56:19;17.25;14.50;12.25
72467;PMS3003;60626;43.582;1.470;2022-08-16T12:58:50;13.25;13.25;12.00
72467;PMS3003;60626;43.582;1.470;2022-08-16T13:01:22;18.75;18.75;14.25
72467;PMS3003;60626;43.582;1.470;2022-08-16T13:03:52;19.00;16.00;13.25
72467;PMS3003;60626;43.582;1.470;2022-08-16T13:06:41;13.75;13.75;11.25
72467;PMS3003;60626;43.582;1.470;2022-08-16T13:09:09;15.75;15.75;12.75
72467;PMS3003;60626;43.582;1.470;2022-08-16T13:12:01;15.50;15.50;12.50
72467;PMS3003;60626;43.582;1.470;2022-08-16T13:14:37;16.75;16.75;13.25
72467;PMS3003;60626;43.582;1.470;2022-08-16T13:17:08;17.00;15.75;13.50
72467;PMS3003;60626;43.582;1.470;2022-08-16T13:19:45;16.00;16.00;12.25
72467;PMS3003;60626;43.582;1.470;2022-08-16T13:22:33;16.50;15.00;11.75
72467;PMS3003;60626;43.582;1.470;2022-08-16T13:25:03;14.25;14.25;12.25
72467;PMS3003;60626;43.582;1.470;2022-08-16T13:27:34;17.00;17.00;13.75
72467;PMS3003;60626;43.582;1.470;2022-08-16T13:30:21;18.25;18.00;13.75
72467;PMS3003;60626;43.582;1.470;2022-08-16T13:33:07;18.25;17.00;14.25
72467;PMS3003;60626;43.582;1.470;2022-08-16T13:35:40;14.75;14.75;13.00
72467;PMS3003;60626;43.582;1.470;2022-08-16T13:38:10;19.25;17.25;14.00
72467;PMS3003;60626;43.582;1.470;2022-08-16T13:40:51;16.75;16.75;13.50
72467;PMS3003;60626;43.582;1.470;2022-08-16T13:43:22;15.00;15.00;12.00
72467;PMS3003;60626;43.582;1.470;2022-08-16T13:45:51;15.75;15.75;12.50
72467;PMS3003;60626;43.582;1.470;2022-08-16T13:48:20;18.25;18.25;13.50
72467;PMS3003;60626;43.582;1.470;2022-08-16T13:50:54;18.00;15.50;12.25
72467;PMS3003;60626;43.582;1.470;2022-08-16T13:53:29;16.25;15.00;12.50
72467;PMS3003;60626;43.582;1.470;2022-08-16T13:55:57;16.75;15.25;12.25
72467;PMS3003;60626;43.582;1.470;2022-08-16T13:58:25;17.00;17.00;13.00
72467;PMS3003;60626;43.582;1.470;2022-08-16T14:01:13;16.75;16.75;13.25
72467;PMS3003;60626;43.582;1.470;2022-08-16T14:03:42;18.00;17.25;13.25
72467;PMS3003;60626;43.582;1.470;2022-08-16T14:06:10;16.75;16.75;10.25
72467;PMS3003;60626;43.582;1.470;2022-08-16T14:08:40;18.25;18.25;14.00
72467;PMS3003;60626;43.582;1.470;2022-08-16T14:11:11;19.75;17.25;14.00
72467;PMS3003;60626;43.582;1.470;2022-08-16T14:13:42;18.50;18.50;13.50
72467;PMS3003;60626;43.582;1.470;2022-08-16T14:16:09;16.75;14.75;12.25
72467;PMS3003;60626;43.582;1.470;2022-08-16T14:18:50;16.25;15.25;13.25
72467;PMS3003;60626;43.582;1.470;2022-08-16T14:21:19;16.50;16.50;13.50
72467;PMS3003;60626;43.582;1.470;2022-08-16T14:23:49;19.25;17.75;13.50
72467;PMS3003;60626;43.582;1.470;2022-08-16T14:26:17;15.75;14.25;12.25
72467;PMS3003;60626;43.582;1.470;2022-08-16T14:28:46;17.50;17.50;13.50
72467;PMS3003;60626;43.582;1.470;2022-08-16T14:31:16;13.75;13.75;10.50
72467;PMS3003;60626;43.582;1.470;2022-08-16T14:33:44;15.25;15.25;13.25